Time;durP1;ratioP1;P1;durP2;ratioP2;P2;SDS_P1;SDS_P2;PMS_P1;PMS_P2;Temp;Humidity;BMP_temperature;BMP_pressure;BME280_temperature;BME280_humidity;BME280_pressure;Samples;Min_cycle;Max_cycle;Signal;HPM_P1;HPM_P2
2023/08/16 00:02:15;;;;;;;5.80;2.20;;;19.20;99.90;;;;;;5050554;28;20213;-64
2023/08/16 00:04:42;;;;;;;5.03;2.30;;;19.30;99.90;;;;;;5051601;28;20188;-64
2023/08/16 00:07:07;;;;;;;5.30;2.87;;;19.20;99.90;;;;;;5037508;28;20191;-63
2023/08/16 00:09:33;;;;;;;7.30;3.60;;;19.10;99.90;;;;;;5036731;28;20425;-63
2023/08/16 00:11:59;;;;;;;6.10;3.20;;;19.00;99.90;;;;;;5049666;28;20292;-62
2023/08/16 00:14:24;;;;;;;6.93;3.70;;;18.90;99.90;;;;;;5038530;28;20693;-63
2023/08/16 00:16:50;;;;;;;5.90;2.83;;;18.80;99.90;;;;;;5039457;28;20196;-63
2023/08/16 00:19:15;;;;;;;4.73;2.87;;;18.80;99.90;;;;;;5038829;28;20272;-63
2023/08/16 00:21:41;;;;;;;5.90;3.57;;;18.80;99.90;;;;;;5050748;28;20670;-62
2023/08/16 00:24:07;;;;;;;13.37;3.60;;;18.80;99.90;;;;;;5051124;28;20260;-63
2023/08/16 00:26:33;;;;;;;8.00;3.70;;;18.90;99.90;;;;;;5037986;28;20242;-63
2023/08/16 00:28:59;;;;;;;7.40;3.50;;;18.90;99.90;;;;;;5051117;28;20886;-63
2023/08/16 00:31:24;;;;;;;6.60;3.80;;;19.00;99.90;;;;;;5049920;28;20194;-63
2023/08/16 00:33:50;;;;;;;8.10;3.43;;;19.00;99.90;;;;;;5046969;28;20898;-62
2023/08/16 00:36:16;;;;;;;5.77;3.50;;;19.00;99.90;;;;;;5047077;28;20269;-63
2023/08/16 00:38:44;;;;;;;10.40;4.53;;;19.00;99.90;;;;;;5039270;28;20190;-63
2023/08/16 00:41:11;;;;;;;6.53;4.13;;;19.00;99.90;;;;;;5049975;28;20738;-63
2023/08/16 00:43:37;;;;;;;13.80;5.50;;;18.90;99.90;;;;;;5050583;28;20772;-63
2023/08/16 00:46:06;;;;;;;4.50;3.33;;;18.90;99.90;;;;;;5051374;28;20416;-62
2023/08/16 00:48:32;;;;;;;6.30;3.30;;;18.90;99.90;;;;;;5051272;28;20424;-63
2023/08/16 00:50:59;;;;;;;7.37;4.00;;;18.90;99.90;;;;;;5051101;28;20452;-63
2023/08/16 00:53:29;;;;;;;6.07;3.60;;;18.90;99.90;;;;;;5038056;28;20433;-63
2023/08/16 00:55:55;;;;;;;4.40;3.00;;;18.90;99.90;;;;;;5050748;28;20424;-63
2023/08/16 00:58:22;;;;;;;14.37;3.73;;;18.80;99.90;;;;;;5050571;28;20479;-62
2023/08/16 01:00:48;;;;;;;4.20;2.50;;;18.80;99.90;;;;;;5020406;28;20848;-63
2023/08/16 01:03:14;;;;;;;6.60;3.53;;;18.80;99.90;;;;;;5028020;28;20905;-63
2023/08/16 01:05:40;;;;;;;7.20;3.37;;;18.70;99.90;;;;;;5026634;28;20428;-63
2023/08/16 01:08:06;;;;;;;5.23;2.97;;;18.70;99.90;;;;;;5030657;28;20193;-63
2023/08/16 01:10:45;;;;;;;7.80;3.30;;;18.60;99.90;;;;;;5030654;28;20421;-63
2023/08/16 01:13:39;;;;;;;9.90;2.60;;;18.50;99.90;;;;;;5029965;28;20433;-63
2023/08/16 01:16:07;;;;;;;5.10;2.80;;;18.40;99.90;;;;;;5029452;28;20434;-62
2023/08/16 01:18:36;;;;;;;4.47;3.00;;;18.50;99.90;;;;;;5017299;28;20957;-63
2023/08/16 01:21:04;;;;;;;8.63;3.70;;;18.40;99.90;;;;;;5030594;28;20480;-63
2023/08/16 01:23:43;;;;;;;4.80;3.07;;;18.40;99.90;;;;;;5030209;28;20793;-63
2023/08/16 01:26:11;;;;;;;6.33;3.27;;;18.40;99.90;;;;;;5030832;28;20417;-63
2023/08/16 01:28:38;;;;;;;8.97;3.10;;;18.40;99.90;;;;;;5030454;28;20761;-63
2023/08/16 01:31:05;;;;;;;7.40;3.70;;;18.30;99.90;;;;;;5030463;28;20429;-63
2023/08/16 01:33:30;;;;;;;5.90;3.23;;;18.30;99.90;;;;;;5030069;28;20432;-63
2023/08/16 01:35:56;;;;;;;6.13;3.00;;;18.30;99.90;;;;;;5030861;28;20528;-62
2023/08/16 01:38:22;;;;;;;6.50;3.60;;;18.30;99.90;;;;;;5030527;28;20661;-63
2023/08/16 01:40:55;;;;;;;7.30;4.10;;;18.30;99.90;;;;;;5030766;28;20714;-63
2023/08/16 01:43:21;;;;;;;5.00;3.23;;;18.30;99.90;;;;;;5029622;28;20191;-63
2023/08/16 01:45:49;;;;;;;6.80;4.27;;;18.30;99.90;;;;;;5030380;28;20427;-63
2023/08/16 01:48:15;;;;;;;5.43;3.50;;;18.30;99.90;;;;;;5030258;28;20828;-63
2023/08/16 01:50:41;;;;;;;9.00;4.13;;;18.20;99.90;;;;;;5030665;28;20425;-63
2023/08/16 01:53:08;;;;;;;6.37;3.83;;;18.20;99.90;;;;;;5030203;28;20460;-63
2023/08/16 01:55:33;;;;;;;7.77;3.23;;;18.20;99.90;;;;;;5030374;28;20432;-63
2023/08/16 01:58:00;;;;;;;6.33;3.37;;;18.10;99.90;;;;;;5029984;28;20958;-63
2023/08/16 02:00:25;;;;;;;6.73;3.07;;;18.10;99.90;;;;;;5029905;28;20220;-63
2023/08/16 02:02:51;;;;;;;6.30;3.97;;;18.10;99.90;;;;;;5030135;28;20940;-63
2023/08/16 02:05:16;;;;;;;5.57;3.40;;;18.10;99.90;;;;;;5029386;28;20297;-63
2023/08/16 02:07:42;;;;;;;8.60;4.30;;;18.10;99.90;;;;;;5037857;28;20186;-63
2023/08/16 02:10:08;;;;;;;6.30;3.40;;;18.10;99.90;;;;;;5030541;28;20566;-63
2023/08/16 02:12:34;;;;;;;6.60;3.90;;;18.10;99.90;;;;;;5029759;28;20190;-63
2023/08/16 02:14:59;;;;;;;5.83;3.93;;;18.10;99.90;;;;;;5029574;28;20199;-63
2023/08/16 02:17:25;;;;;;;10.57;3.60;;;18.00;99.90;;;;;;5030316;28;20289;-63
2023/08/16 02:19:50;;;;;;;13.10;4.77;;;18.00;99.90;;;;;;5031740;28;20202;-63
2023/08/16 02:22:16;;;;;;;7.67;3.40;;;18.00;99.90;;;;;;5033979;28;20218;-63
2023/08/16 02:24:42;;;;;;;9.57;3.30;;;18.00;99.90;;;;;;5033732;28;20194;-63
2023/08/16 02:27:07;;;;;;;4.80;2.93;;;17.90;99.90;;;;;;5033825;28;20287;-63
2023/08/16 02:29:33;;;;;;;4.40;2.70;;;17.90;99.90;;;;;;5033729;28;20201;-63
2023/08/16 02:31:58;;;;;;;5.73;3.13;;;17.90;99.90;;;;;;5033614;28;20233;-63
2023/08/16 02:34:24;;;;;;;9.60;4.00;;;17.80;99.90;;;;;;5032813;28;20793;-63
2023/08/16 02:36:50;;;;;;;4.93;3.33;;;17.80;99.90;;;;;;5033802;28;20197;-63
2023/08/16 02:39:17;;;;;;;4.27;2.70;;;17.80;99.90;;;;;;5033435;28;20206;-63
2023/08/16 02:41:42;;;;;;;5.80;3.17;;;17.80;99.90;;;;;;5033316;28;20722;-63
2023/08/16 02:44:08;;;;;;;4.13;2.87;;;17.70;99.90;;;;;;5031691;28;20516;-63
2023/08/16 02:46:34;;;;;;;4.60;2.97;;;17.70;99.90;;;;;;5032706;28;20185;-63
2023/08/16 02:48:59;;;;;;;6.57;3.10;;;17.70;99.90;;;;;;5032380;28;20210;-63
2023/08/16 02:51:25;;;;;;;5.53;2.67;;;17.70;99.90;;;;;;5032636;28;20186;-63
2023/08/16 02:53:50;;;;;;;6.93;3.77;;;17.70;99.90;;;;;;5031790;28;20236;-63
2023/08/16 02:56:16;;;;;;;5.00;3.00;;;17.70;99.90;;;;;;5032517;28;20186;-63
2023/08/16 02:58:42;;;;;;;4.03;2.60;;;17.70;99.90;;;;;;5024995;28;20199;-63
2023/08/16 03:01:07;;;;;;;5.00;2.77;;;17.70;99.90;;;;;;5029341;28;20280;-63
2023/08/16 03:03:33;;;;;;;6.70;3.50;;;17.60;99.90;;;;;;5031324;28;20639;-63
2023/08/16 03:05:58;;;;;;;4.10;2.40;;;17.70;99.90;;;;;;5032132;28;20186;-63
2023/08/16 03:08:24;;;;;;;6.83;3.00;;;17.60;99.90;;;;;;5034977;28;20265;-63
2023/08/16 03:10:50;;;;;;;3.40;2.07;;;17.50;99.90;;;;;;5033649;28;20639;-63
2023/08/16 03:13:15;;;;;;;3.70;2.17;;;17.50;99.90;;;;;;5031340;28;20182;-63
2023/08/16 03:15:41;;;;;;;11.93;2.70;;;17.50;99.90;;;;;;5032163;28;20236;-63
2023/08/16 03:18:06;;;;;;;2.90;2.17;;;17.50;99.90;;;;;;5032228;28;20557;-63
2023/08/16 03:20:32;;;;;;;4.20;2.67;;;17.50;99.90;;;;;;5031961;28;20198;-63
2023/08/16 03:22:58;;;;;;;6.83;2.90;;;17.40;99.90;;;;;;5032075;28;20248;-63
2023/08/16 03:25:24;;;;;;;7.13;3.50;;;17.40;99.90;;;;;;5031801;28;20901;-63
2023/08/16 03:27:49;;;;;;;7.67;3.10;;;17.40;99.90;;;;;;5031429;28;20179;-63
2023/08/16 03:30:15;;;;;;;3.73;2.47;;;17.30;99.90;;;;;;5031319;28;20185;-63
2023/08/16 03:32:41;;;;;;;4.90;3.20;;;17.30;99.90;;;;;;5031955;28;20195;-63
2023/08/16 03:35:06;;;;;;;3.90;2.40;;;17.30;99.90;;;;;;5031429;28;20178;-63
2023/08/16 03:37:32;;;;;;;6.20;3.20;;;17.20;99.90;;;;;;5031913;28;20210;-63
2023/08/16 03:39:58;;;;;;;9.70;3.53;;;17.30;99.90;;;;;;5031811;28;20193;-63
2023/08/16 03:42:24;;;;;;;4.20;2.43;;;17.30;99.90;;;;;;5031284;28;20288;-63
2023/08/16 03:44:50;;;;;;;5.10;3.13;;;17.30;99.90;;;;;;5031534;28;20976;-63
2023/08/16 03:47:15;;;;;;;6.90;3.43;;;17.30;99.90;;;;;;5031633;28;20179;-63
2023/08/16 03:49:44;;;;;;;8.93;2.90;;;17.30;99.90;;;;;;5031543;28;20253;-63
2023/08/16 03:52:09;;;;;;;6.30;2.67;;;17.30;99.90;;;;;;5031865;28;20186;-63
2023/08/16 03:54:35;;;;;;;5.80;3.40;;;17.30;99.90;;;;;;5031260;28;20472;-63
2023/08/16 03:57:01;;;;;;;6.20;3.70;;;17.30;99.90;;;;;;5031488;28;20264;-63
2023/08/16 03:59:26;;;;;;;6.90;3.80;;;17.40;99.90;;;;;;5031614;28;20292;-63
2023/08/16 04:01:52;;;;;;;5.17;3.13;;;17.40;99.90;;;;;;5031474;28;20210;-63
2023/08/16 04:04:17;;;;;;;6.87;3.67;;;17.40;99.90;;;;;;5031312;28;20305;-63
2023/08/16 04:06:43;;;;;;;5.10;3.47;;;17.40;99.90;;;;;;5031215;28;20612;-63
2023/08/16 04:09:09;;;;;;;7.13;3.60;;;17.40;99.90;;;;;;5037491;28;20192;-63
2023/08/16 04:11:35;;;;;;;5.73;3.20;;;17.40;99.90;;;;;;5027570;28;20188;-63
2023/08/16 04:14:01;;;;;;;11.50;2.77;;;17.40;99.90;;;;;;5030651;28;20495;-63
2023/08/16 04:16:27;;;;;;;6.10;4.10;;;17.50;99.90;;;;;;5030921;28;20457;-63
2023/08/16 04:18:53;;;;;;;4.63;2.90;;;17.50;99.90;;;;;;5030900;28;20197;-63
2023/08/16 04:21:19;;;;;;;8.10;3.30;;;17.40;99.90;;;;;;5031136;28;20225;-63
2023/08/16 04:23:45;;;;;;;5.37;3.60;;;17.40;99.90;;;;;;5030790;28;20427;-63
2023/08/16 04:26:10;;;;;;;5.27;3.43;;;17.30;99.90;;;;;;5030659;28;20429;-63
2023/08/16 04:28:36;;;;;;;4.53;2.80;;;17.30;99.90;;;;;;5030773;28;20182;-63
2023/08/16 04:31:03;;;;;;;9.30;3.00;;;17.30;99.90;;;;;;5030507;28;20228;-63
2023/08/16 04:33:28;;;;;;;8.97;3.70;;;17.30;99.90;;;;;;5030443;28;20546;-63
2023/08/16 04:35:54;;;;;;;6.70;3.13;;;17.40;99.90;;;;;;5029438;28;20437;-63
2023/08/16 04:38:20;;;;;;;8.50;4.50;;;17.30;99.90;;;;;;5030903;28;20189;-63
2023/08/16 04:40:49;;;;;;;5.97;3.87;;;17.30;99.90;;;;;;5030494;28;20252;-63
2023/08/16 04:43:15;;;;;;;5.60;3.70;;;17.30;99.90;;;;;;5030116;28;20663;-63
2023/08/16 04:45:41;;;;;;;8.10;3.53;;;17.40;99.90;;;;;;5031331;28;20429;-63
2023/08/16 04:48:08;;;;;;;9.03;3.50;;;17.40;99.90;;;;;;5031694;28;20420;-63
2023/08/16 04:50:34;;;;;;;5.20;2.90;;;17.40;99.90;;;;;;5031368;28;20269;-63
2023/08/16 04:52:59;;;;;;;8.70;4.37;;;17.40;99.90;;;;;;5031552;28;20862;-63
2023/08/16 04:55:25;;;;;;;7.37;3.53;;;17.40;99.90;;;;;;5030761;28;20217;-63
2023/08/16 04:57:50;;;;;;;7.57;3.70;;;17.40;99.90;;;;;;5031070;28;20535;-63
2023/08/16 05:00:17;;;;;;;7.70;4.67;;;17.40;99.90;;;;;;5031006;28;20190;-63
2023/08/16 05:02:43;;;;;;;10.10;3.57;;;17.40;99.90;;;;;;5031159;28;20202;-63
2023/08/16 05:05:08;;;;;;;5.37;3.27;;;17.50;99.90;;;;;;5030374;28;20421;-63
2023/08/16 05:07:34;;;;;;;20.83;4.73;;;17.60;99.90;;;;;;5030875;28;20174;-63
2023/08/16 05:10:00;;;;;;;5.83;4.00;;;17.60;99.90;;;;;;5037135;28;20183;-63
2023/08/16 05:12:25;;;;;;;7.93;4.00;;;17.70;99.90;;;;;;5030331;28;20225;-63
2023/08/16 05:14:51;;;;;;;5.63;3.40;;;17.70;99.90;;;;;;5030381;28;20216;-63
2023/08/16 05:17:16;;;;;;;6.17;3.60;;;17.90;99.90;;;;;;5030767;28;20186;-63
2023/08/16 05:19:42;;;;;;;9.57;4.27;;;17.90;99.90;;;;;;5030849;28;20194;-63
2023/08/16 05:22:08;;;;;;;7.23;3.93;;;18.00;99.90;;;;;;5030750;28;20202;-63
2023/08/16 05:24:33;;;;;;;6.60;4.10;;;18.10;99.90;;;;;;5030352;28;20809;-63
2023/08/16 05:26:59;;;;;;;6.67;4.37;;;18.20;99.90;;;;;;5030346;28;20188;-63
2023/08/16 05:29:24;;;;;;;5.27;3.53;;;18.20;99.90;;;;;;5030987;28;20193;-63
2023/08/16 05:31:50;;;;;;;7.60;3.60;;;18.30;99.90;;;;;;5030957;28;20182;-63
2023/08/16 05:34:18;;;;;;;7.20;3.70;;;18.40;99.90;;;;;;5029884;28;20197;-63
2023/08/16 05:36:48;;;;;;;4.83;3.13;;;18.50;99.90;;;;;;5030819;28;20178;-63
2023/08/16 05:39:14;;;;;;;7.90;4.10;;;18.70;99.90;;;;;;5030634;28;20432;-63
2023/08/16 05:41:40;;;;;;;6.40;3.60;;;18.80;99.90;;;;;;5030775;28;20461;-63
2023/08/16 05:44:06;;;;;;;3.23;2.17;;;18.90;99.90;;;;;;5029973;28;20909;-63
2023/08/16 05:46:32;;;;;;;4.77;2.77;;;19.00;99.90;;;;;;5030763;28;20421;-63
2023/08/16 05:49:00;;;;;;;4.40;2.60;;;19.00;99.90;;;;;;5030321;28;20186;-63
2023/08/16 05:51:26;;;;;;;8.53;3.80;;;19.10;99.90;;;;;;5030571;28;20179;-63
2023/08/16 05:53:52;;;;;;;5.70;3.00;;;19.30;99.90;;;;;;5032110;28;20433;-63
2023/08/16 05:56:17;;;;;;;5.87;3.10;;;19.40;99.90;;;;;;5034800;28;20428;-63
2023/08/16 05:58:43;;;;;;;4.40;2.40;;;19.50;99.90;;;;;;5032699;28;20183;-63
2023/08/16 06:01:09;;;;;;;3.90;1.97;;;19.60;99.90;;;;;;5034383;28;20208;-63
2023/08/16 06:03:35;;;;;;;6.47;3.10;;;19.70;99.90;;;;;;5033998;28;20421;-63
2023/08/16 06:06:00;;;;;;;4.73;2.60;;;19.80;99.90;;;;;;5034188;28;20183;-63
2023/08/16 06:08:26;;;;;;;4.80;2.37;;;19.90;99.90;;;;;;5035802;28;20187;-63
2023/08/16 06:10:52;;;;;;;3.70;2.57;;;20.00;99.90;;;;;;5034342;28;20190;-63
2023/08/16 06:13:17;;;;;;;5.80;2.63;;;20.00;99.90;;;;;;5032997;28;20265;-63
2023/08/16 06:15:43;;;;;;;5.80;2.50;;;20.10;99.90;;;;;;5034125;28;20193;-63
2023/08/16 06:18:08;;;;;;;3.60;2.37;;;20.10;99.90;;;;;;5034158;28;20178;-63
2023/08/16 06:20:34;;;;;;;3.73;2.10;;;20.20;99.90;;;;;;5033473;28;20648;-64
2023/08/16 06:23:01;;;;;;;5.73;3.10;;;20.30;99.90;;;;;;5034125;28;20194;-64
2023/08/16 06:25:27;;;;;;;3.83;2.20;;;20.20;99.90;;;;;;5033953;28;20182;-64
2023/08/16 06:27:52;;;;;;;5.43;2.90;;;20.20;99.90;;;;;;5033914;28;20502;-63
2023/08/16 06:30:18;;;;;;;6.53;3.00;;;20.30;99.90;;;;;;5034012;28;20202;-64
2023/08/16 06:32:44;;;;;;;5.67;2.77;;;20.30;99.90;;;;;;5034056;28;20232;-63
2023/08/16 06:35:09;;;;;;;4.90;2.20;;;20.40;99.90;;;;;;5033291;28;20193;-63
2023/08/16 06:37:38;;;;;;;3.83;2.07;;;20.40;99.90;;;;;;5033960;28;20186;-63
2023/08/16 06:40:04;;;;;;;4.90;2.90;;;20.40;99.90;;;;;;5033918;28;20182;-64
2023/08/16 06:42:31;;;;;;;3.90;2.80;;;20.40;99.90;;;;;;5033229;28;20457;-64
2023/08/16 06:44:57;;;;;;;3.77;2.50;;;20.40;99.90;;;;;;5033144;28;20501;-64
2023/08/16 06:47:22;;;;;;;4.60;2.47;;;20.50;99.90;;;;;;5033420;28;20508;-64
2023/08/16 06:49:48;;;;;;;5.33;3.00;;;20.60;99.90;;;;;;5033441;28;20174;-63
2023/08/16 06:52:14;;;;;;;4.53;2.67;;;20.70;99.90;;;;;;5033456;28;20189;-64
2023/08/16 06:54:42;;;;;;;10.20;2.83;;;20.80;99.90;;;;;;5033073;28;20194;-64
2023/08/16 06:57:08;;;;;;;6.47;2.53;;;20.80;99.90;;;;;;5032838;28;20247;-64
2023/08/16 06:59:35;;;;;;;3.50;2.27;;;21.00;99.90;;;;;;5033525;28;20424;-64
2023/08/16 07:02:00;;;;;;;4.47;2.73;;;21.10;99.90;;;;;;5030857;28;20776;-64
2023/08/16 07:04:26;;;;;;;7.77;3.13;;;21.30;99.90;;;;;;5032074;28;20436;-64
2023/08/16 07:06:52;;;;;;;6.90;2.67;;;21.50;99.90;;;;;;5032660;28;20250;-64
2023/08/16 07:09:18;;;;;;;5.77;3.27;;;21.90;99.90;;;;;;5038155;28;20538;-64
2023/08/16 07:11:43;;;;;;;4.57;2.63;;;22.10;99.90;;;;;;5030621;28;20184;-64
2023/08/16 07:14:09;;;;;;;4.13;3.00;;;22.30;99.90;;;;;;5032314;28;20194;-64
2023/08/16 07:16:36;;;;;;;5.23;2.93;;;22.60;99.90;;;;;;5038199;28;20191;-64
2023/08/16 07:19:04;;;;;;;4.53;2.50;;;22.90;99.90;;;;;;5053100;28;20181;-64
2023/08/16 07:21:29;;;;;;;6.10;2.97;;;23.20;99.90;;;;;;5046151;28;20456;-64
2023/08/16 07:23:55;;;;;;;10.40;3.10;;;23.30;99.90;;;;;;5027863;28;20436;-64
2023/08/16 07:26:21;;;;;;;6.30;2.70;;;23.50;99.90;;;;;;5033080;28;20207;-64
2023/08/16 07:28:47;;;;;;;6.07;3.37;;;23.70;99.90;;;;;;5033675;28;20408;-64
2023/08/16 07:31:12;;;;;;;7.33;3.03;;;24.00;99.90;;;;;;5046255;28;20261;-64
2023/08/16 07:33:39;;;;;;;3.70;2.30;;;24.10;99.90;;;;;;5033735;28;20552;-63
2023/08/16 07:36:05;;;;;;;4.73;2.93;;;24.60;99.90;;;;;;5035082;28;20277;-63
2023/08/16 07:38:32;;;;;;;3.50;2.40;;;25.30;99.90;;;;;;5036184;28;20993;-63
2023/08/16 07:40:58;;;;;;;6.67;2.97;;;25.80;99.90;;;;;;5034515;28;20639;-63
2023/08/16 07:43:24;;;;;;;9.03;2.90;;;26.70;99.90;;;;;;5041865;28;20185;-63
2023/08/16 07:45:53;;;;;;;6.60;3.08;;;27.60;99.90;;;;;;5052124;28;20197;-63
2023/08/16 07:48:20;;;;;;;10.23;3.30;;;28.20;99.90;;;;;;5052610;28;20189;-63
2023/08/16 07:50:45;;;;;;;5.70;2.80;;;28.10;99.90;;;;;;5051916;28;20180;-63
2023/08/16 07:53:11;;;;;;;5.70;2.00;;;28.00;99.90;;;;;;5051991;28;20252;-63
2023/08/16 07:55:37;;;;;;;3.75;2.30;;;27.10;99.90;;;;;;5052426;28;20563;-63
2023/08/16 07:58:03;;;;;;;3.90;2.25;;;27.70;99.90;;;;;;5041665;28;20196;-63
2023/08/16 08:00:29;;;;;;;4.93;2.63;;;27.30;99.90;;;;;;5049103;28;20181;-63
2023/08/16 08:02:55;;;;;;;7.82;3.45;;;27.60;99.90;;;;;;5044526;28;20177;-63
2023/08/16 08:05:21;;;;;;;3.33;2.28;;;28.00;99.90;;;;;;5051806;28;20252;-63
2023/08/16 08:07:48;;;;;;;3.63;2.55;;;28.90;99.50;;;;;;5038749;28;20232;-63
2023/08/16 08:10:14;;;;;;;5.00;2.30;;;29.30;98.90;;;;;;5036282;28;20530;-63
2023/08/16 08:12:45;;;;;;;4.80;2.88;;;29.10;99.30;;;;;;5036734;28;20556;-63
2023/08/16 08:15:11;;;;;;;3.45;2.20;;;29.60;98.30;;;;;;5030879;28;20217;-63
2023/08/16 08:17:36;;;;;;;4.95;2.67;;;30.00;97.80;;;;;;5044154;28;20235;-64
2023/08/16 08:20:03;;;;;;;5.75;3.25;;;30.00;97.20;;;;;;5051495;28;20283;-63
2023/08/16 08:22:29;;;;;;;7.63;2.60;;;30.10;96.80;;;;;;5051613;28;20212;-63
2023/08/16 08:24:54;;;;;;;3.42;2.40;;;29.40;97.80;;;;;;5037893;28;20177;-64
2023/08/16 08:27:20;;;;;;;7.10;2.78;;;29.20;98.40;;;;;;5051373;28;20206;-64
2023/08/16 08:29:46;;;;;;;9.05;2.92;;;29.30;98.50;;;;;;5031832;28;20529;-63
2023/08/16 08:32:12;;;;;;;7.10;3.38;;;29.40;98.30;;;;;;5026604;28;20177;-64
2023/08/16 08:34:39;;;;;;;5.55;2.95;;;29.70;98.30;;;;;;5039409;28;20188;-63
2023/08/16 08:37:04;;;;;;;5.03;2.85;;;30.40;96.30;;;;;;5051375;28;20181;-64
2023/08/16 08:39:32;;;;;;;8.27;2.45;;;30.40;96.30;;;;;;5035334;28;20192;-64
2023/08/16 08:41:57;;;;;;;3.58;2.03;;;30.70;95.70;;;;;;5043962;28;20246;-64
2023/08/16 08:44:24;;;;;;;5.57;2.65;;;30.50;95.40;;;;;;5050589;28;20260;-64
2023/08/16 08:46:50;;;;;;;6.13;2.88;;;30.60;96.10;;;;;;5038614;28;20182;-64
2023/08/16 08:49:17;;;;;;;4.13;2.28;;;31.00;95.00;;;;;;5050291;28;20536;-64
2023/08/16 08:51:43;;;;;;;4.60;2.55;;;31.10;94.60;;;;;;5051741;28;20188;-64
2023/08/16 08:54:08;;;;;;;5.63;2.75;;;30.50;94.60;;;;;;5037436;28;20205;-64
2023/08/16 08:56:34;;;;;;;5.85;2.92;;;31.10;94.60;;;;;;5051567;28;20700;-64
2023/08/16 08:59:04;;;;;;;5.72;3.05;;;31.20;94.50;;;;;;5050529;28;20185;-64
2023/08/16 09:01:31;;;;;;;3.40;2.55;;;31.20;94.60;;;;;;5044699;28;20202;-63
2023/08/16 09:04:05;;;;;;;14.20;2.80;;;30.80;94.60;;;;;;5044021;28;20178;-64
2023/08/16 09:06:30;;;;;;;4.13;2.60;;;30.70;94.80;;;;;;5044641;28;20173;-64
2023/08/16 09:08:56;;;;;;;4.22;2.53;;;30.40;96.20;;;;;;5032201;28;20193;-64
2023/08/16 09:11:24;;;;;;;5.38;2.42;;;30.00;95.10;;;;;;5044925;28;20200;-64
2023/08/16 09:13:51;;;;;;;5.60;2.90;;;29.90;96.30;;;;;;5041761;28;20182;-64
2023/08/16 09:16:17;;;;;;;5.88;3.10;;;29.50;96.20;;;;;;5032290;28;20235;-64
2023/08/16 09:18:47;;;;;;;8.48;2.70;;;29.60;96.30;;;;;;5050794;28;20541;-64
2023/08/16 09:21:18;;;;;;;3.22;2.50;;;29.50;96.60;;;;;;5050544;28;20641;-64
2023/08/16 09:23:44;;;;;;;5.22;2.83;;;29.40;97.40;;;;;;5050329;28;20586;-64
2023/08/16 09:26:15;;;;;;;6.18;2.80;;;29.90;96.30;;;;;;5050758;28;20267;-64
2023/08/16 09:28:41;;;;;;;4.28;2.60;;;30.70;95.30;;;;;;5049613;28;20201;-64
2023/08/16 09:31:07;;;;;;;3.83;2.50;;;30.80;95.40;;;;;;5034498;28;20189;-64
2023/08/16 09:33:34;;;;;;;3.88;2.42;;;30.80;95.70;;;;;;5034102;28;20186;-64
2023/08/16 09:36:01;;;;;;;6.30;3.28;;;30.80;95.70;;;;;;5047687;28;20207;-64
2023/08/16 09:38:27;;;;;;;5.13;2.92;;;31.00;94.80;;;;;;5050719;28;20184;-64
2023/08/16 09:40:52;;;;;;;6.65;3.65;;;30.70;95.20;;;;;;5040598;28;20769;-64
2023/08/16 09:43:19;;;;;;;9.00;2.83;;;31.10;94.70;;;;;;5050022;28;20189;-62
2023/08/16 09:45:53;;;;;;;8.57;3.22;;;31.50;94.80;;;;;;5050768;28;20840;-62
2023/08/16 09:48:21;;;;;;;4.07;2.47;;;32.10;93.60;;;;;;5050562;28;20273;-62
2023/08/16 09:50:47;;;;;;;5.57;2.85;;;31.90;93.80;;;;;;5050233;28;20185;-62
2023/08/16 09:53:13;;;;;;;4.25;3.17;;;31.60;94.50;;;;;;5050171;28;20177;-62
2023/08/16 09:55:40;;;;;;;5.15;2.78;;;31.80;93.80;;;;;;5050277;28;20557;-62
2023/08/16 09:58:07;;;;;;;3.97;2.10;;;31.90;93.20;;;;;;5049903;28;20227;-62
2023/08/16 10:00:34;;;;;;;6.97;3.05;;;32.20;93.00;;;;;;5050073;28;20367;-61
2023/08/16 10:03:00;;;;;;;4.90;2.78;;;31.70;93.20;;;;;;5044674;28;20576;-62
2023/08/16 10:05:26;;;;;;;7.55;2.40;;;30.80;93.70;;;;;;5049499;28;20181;-62
2023/08/16 10:07:54;;;;;;;4.75;2.78;;;30.90;93.80;;;;;;5038275;28;20507;-62
2023/08/16 10:10:20;;;;;;;4.50;2.90;;;30.80;93.80;;;;;;5036286;28;20186;-64
2023/08/16 10:12:46;;;;;;;3.65;2.00;;;30.40;95.40;;;;;;5043325;28;21001;-63
2023/08/16 10:15:12;;;;;;;14.02;2.97;;;30.30;95.30;;;;;;5031957;28;20185;-63
2023/08/16 10:17:40;;;;;;;5.72;2.90;;;29.80;96.00;;;;;;5042715;28;20346;-63
2023/08/16 10:20:19;;;;;;;5.45;2.50;;;29.80;95.70;;;;;;5049944;28;20221;-63
2023/08/16 10:22:48;;;;;;;5.70;3.28;;;29.70;96.30;;;;;;5050020;28;20283;-63
2023/08/16 10:25:23;;;;;;;3.97;3.00;;;29.90;95.20;;;;;;5029038;28;20261;-63
2023/08/16 10:27:50;;;;;;;5.22;2.60;;;29.70;95.80;;;;;;5032133;28;20178;-63
2023/08/16 10:30:21;;;;;;;6.07;2.55;;;29.50;96.30;;;;;;5035185;28;20288;-63
2023/08/16 10:32:51;;;;;;;5.25;2.35;;;29.20;96.80;;;;;;5033461;28;20244;-63
2023/08/16 10:35:18;;;;;;;13.55;3.55;;;29.00;96.90;;;;;;5044284;28;20189;-63
2023/08/16 10:37:46;;;;;;;6.47;3.28;;;28.90;97.70;;;;;;5036913;28;20184;-63
2023/08/16 10:40:17;;;;;;;7.25;3.35;;;29.00;97.80;;;;;;5042099;28;20185;-64
2023/08/16 10:43:08;;;;;;;3.72;2.47;;;29.30;97.30;;;;;;5051840;28;20207;-63
2023/08/16 10:45:35;;;;;;;6.50;2.50;;;29.30;96.40;;;;;;5053311;28;20169;-63
2023/08/16 10:48:10;;;;;;;13.23;3.20;;;29.30;96.40;;;;;;5052228;28;20200;-63
2023/08/16 10:50:36;;;;;;;5.47;3.00;;;29.20;96.90;;;;;;5053204;28;20177;-63
2023/08/16 10:53:04;;;;;;;6.05;3.08;;;29.50;97.50;;;;;;5045587;28;20181;-63
2023/08/16 10:55:29;;;;;;;5.65;2.75;;;29.70;96.60;;;;;;5030881;28;20182;-63
2023/08/16 10:57:55;;;;;;;2.63;1.70;;;29.90;97.50;;;;;;5033194;28;20264;-63
2023/08/16 11:00:35;;;;;;;4.00;2.33;;;30.00;96.60;;;;;;5040189;28;20181;-63
2023/08/16 11:03:04;;;;;;;6.55;2.95;;;29.90;96.10;;;;;;5046655;28;20185;-63
2023/08/16 11:05:31;;;;;;;5.80;3.40;;;29.90;95.90;;;;;;5046817;28;20178;-63
2023/08/16 11:08:01;;;;;;;5.22;3.40;;;30.00;95.60;;;;;;5035227;28;20703;-64
2023/08/16 11:10:39;;;;;;;5.20;3.17;;;29.90;96.10;;;;;;5044302;28;20502;-63
2023/08/16 11:13:11;;;;;;;6.85;3.28;;;30.00;95.70;;;;;;5050692;28;20598;-63
2023/08/16 11:15:38;;;;;;;7.38;2.25;;;29.70;97.20;;;;;;5035196;28;20182;-63
2023/08/16 11:18:05;;;;;;;6.35;2.80;;;29.70;96.80;;;;;;5049224;28;20272;-63
2023/08/16 11:20:31;;;;;;;5.72;2.53;;;29.50;96.20;;;;;;5053021;28;20243;-64
2023/08/16 11:22:59;;;;;;;7.55;3.05;;;29.60;95.70;;;;;;5036495;28;20887;-63
2023/08/16 11:25:35;;;;;;;7.55;3.08;;;29.60;95.70;;;;;;5042614;28;20265;-63
2023/08/16 11:28:03;;;;;;;6.40;2.90;;;29.80;96.00;;;;;;5052319;28;20204;-63
2023/08/16 11:30:31;;;;;;;6.43;3.17;;;30.00;95.50;;;;;;5052810;28;20178;-63
2023/08/16 11:32:57;;;;;;;5.75;3.10;;;30.10;95.30;;;;;;5039294;28;20625;-63
2023/08/16 11:35:26;;;;;;;6.30;2.72;;;30.20;95.00;;;;;;5046952;28;20208;-63
2023/08/16 11:37:52;;;;;;;7.07;3.13;;;30.00;95.90;;;;;;5052144;28;20216;-63
2023/08/16 11:40:22;;;;;;;4.30;2.80;;;29.40;94.70;;;;;;5040355;28;20236;-63
2023/08/16 11:42:51;;;;;;;9.20;2.53;;;29.40;96.00;;;;;;5051374;28;20220;-63
2023/08/16 11:45:23;;;;;;;10.93;3.50;;;29.70;95.80;;;;;;5052248;28;20181;-63
2023/08/16 11:47:53;;;;;;;6.53;2.95;;;29.80;96.00;;;;;;5027720;28;20196;-63
2023/08/16 11:50:19;;;;;;;14.05;3.60;;;29.70;95.50;;;;;;5051837;28;20278;-63
2023/08/16 11:53:05;;;;;;;4.18;2.20;;;30.10;94.70;;;;;;5051961;28;20189;-63
2023/08/16 11:55:30;;;;;;;4.38;2.58;;;30.10;95.00;;;;;;5051969;28;20550;-63
2023/08/16 11:58:10;;;;;;;6.53;3.28;;;30.30;93.70;;;;;;5051892;28;20192;-63
2023/08/16 12:00:38;;;;;;;5.53;2.70;;;30.60;94.10;;;;;;5051995;28;20185;-63
2023/08/16 12:03:05;;;;;;;4.72;2.90;;;30.80;94.00;;;;;;5032938;28;20182;-63
2023/08/16 12:05:35;;;;;;;3.45;2.15;;;30.90;93.40;;;;;;5044256;28;20182;-63
2023/08/16 12:08:07;;;;;;;7.68;2.75;;;30.80;93.10;;;;;;5032488;28;20666;-63
2023/08/16 12:10:33;;;;;;;6.15;2.47;;;30.90;93.20;;;;;;5037582;28;20253;-63
2023/08/16 12:13:09;;;;;;;5.45;3.20;;;31.10;92.50;;;;;;5044605;28;20177;-63
2023/08/16 12:15:34;;;;;;;5.15;2.28;;;31.20;92.20;;;;;;5032125;28;20258;-63
2023/08/16 12:18:00;;;;;;;10.18;3.25;;;31.10;92.90;;;;;;5033973;28;20252;-63
2023/08/16 12:20:26;;;;;;;4.40;2.55;;;30.90;93.90;;;;;;5051380;28;20611;-63
2023/08/16 12:22:53;;;;;;;5.70;2.70;;;30.70;94.00;;;;;;5050856;28;20208;-63
2023/08/16 12:25:19;;;;;;;5.72;2.80;;;31.00;94.00;;;;;;5051431;28;20188;-63
2023/08/16 12:27:45;;;;;;;6.35;3.03;;;31.30;92.00;;;;;;5051073;28;20182;-63
2023/08/16 12:30:11;;;;;;;6.63;2.88;;;31.20;92.40;;;;;;5051651;28;20576;-64
2023/08/16 12:32:36;;;;;;;5.07;2.08;;;31.20;92.60;;;;;;5038751;28;20265;-63
2023/08/16 12:35:02;;;;;;;5.18;2.60;;;31.20;92.20;;;;;;5045140;28;20639;-63
2023/08/16 12:37:28;;;;;;;6.40;3.10;;;31.20;92.10;;;;;;5047324;28;20207;-63
2023/08/16 12:39:54;;;;;;;5.03;2.47;;;31.40;92.00;;;;;;5051433;28;20581;-63
2023/08/16 12:42:19;;;;;;;3.72;2.67;;;31.30;92.70;;;;;;5050752;28;20278;-63
2023/08/16 12:44:45;;;;;;;4.20;2.58;;;31.20;92.40;;;;;;5051201;28;20610;-63